KNGU/NGU METAR and TAF weather

Enter ICAO airport designator
Station Type Date Time Source
KNGU METAR 2019/02/16 17:31 UTC NOAA

KNGU 161731Z 04014KT 5SM -RA BR FEW014 BKN046 OVC080 03/00 A2987 RMK AO2 PRESFR P0004 T00330000


Station Type Date Time Source
KNGU Decoded METAR 2019/02/16 17:31 UTC NOAA

Norfolk, Naval Air Station, VA, United States (KNGU) 36-56-01N 076-17-45W 8M
Feb 16, 2019 - 12:31 PM EST / 2019.02.16 1731 UTC
Wind: from the NE (040 degrees) at 16 MPH (14 KT):0
Visibility: 5 mile(s):0
Sky conditions: overcast
Weather: light rain; mist
Precipitation last hour: 0.04 inches
Temperature: 37.9 F (3.3 C)
Dew Point: 32.0 F (0.0 C)
Relative Humidity: 78%
Pressure (altimeter): 29.87 in. Hg (1011 hPa)
Pressure tendency: falling rapidly
ob: KNGU 161731Z 04014KT 5SM -RA BR FEW014 BKN046 OVC080 03/00 A2987 RMK AO2 PRESFR P0004 T00330000
cycle: 17

Station Type Date Time Source
KNGU TAF 2019/02/16 15:59 UTC NOAA

TAF KNGU 1615/1715 01013G18KT 8000 -RA BR SCT015 BKN030 OVC050 QNH2983INS
TEMPO 1618/1622 4800 RA BR SCT004 BKN010 OVC030
BECMG 1622/1700 03010KT 9999 NSW BKN060 BKN250 QNH2991INS
BECMG 1706/1708 04012KT 9999 SCT250 QNH2996INS T11/1620Z T03/1707Z FN00198


Example: see airport list